Meteo Giornale » Osservazioni meteo Iran » Abadan
ore: 22:30 - Osservazioni Meteo Abadan
Lat. 30° 22' N Lon. 48° 15' E Alt. 3 metri s.l.m.
32 °C
Sereno
Temp. 24 Ore
31 °C
43 °C
Ovest/Nord-Ovest
11.1 Km/h
Dew point 11 °C
Umidità 27 %
Visibilità 10 Km
Il sole sorge alle ore 05:53
Il sole tramonta alle ore 18:40
| Data e Ora | Cielo e Fenomeni | T °C | DP °C | Um. % | Pres. hPa | Vis. km | Vento km/h | |
|---|---|---|---|---|---|---|---|---|
| Oggi h: 22:30 | Sereno | 32 | 11 | 27 | 1004 | 10 | O/NO 11.1 | |
| Oggi h: 21:30 | Sereno | 33 | 11 | 26 | 1004 | 10 | O/NO 14.8 | |
| Oggi h: 20:30 | Sereno | 37 | 9 | 18 | 1003 | 10 | NO 18.5 | |
| Oggi h: 19:30 | Sereno | 38 | 9 | 17 | 1003 | 10 | NO 25.9 | |
| Oggi h: 18:30 | Sereno | 40 | 10 | 16 | 1002 | 10 | N/NO 25.9 | |
| Oggi h: 17:30 | Sereno | 41 | 10 | 15 | 1003 | 10 | N/NO 29.6 | |
| Oggi h: 16:30 | Sereno | 43 | 11 | 15 | 1003 | 10 | NO 31.5 | |
| Oggi h: 15:30 | Sereno | 43 | 11 | 15 | 1003 | 10 | N/NO 35.2 | |
| Oggi h: 14:30 | Sereno | 43 | 11 | 15 | 1003 | 10 | NO 31.5 | |
| Oggi h: 13:30 | Sereno | 43 | 11 | 15 | 1004 | 10 | N/NO 31.5 | |
| Oggi h: 12:30 | Sereno | 42 | 11 | 16 | 1004 | 10 | N/NO 29.6 | |
| Oggi h: 11:30 | Sereno | 41 | 11 | 16 | 1005 | 10 | N/NO 29.6 | |
| Oggi h: 10:30 | Sereno | 39 | 12 | 20 | 1005 | 10 | N/NO 25.9 | |
| Oggi h: 09:30 | Sereno | 37 | 13 | 23 | 1005 | 10 | N/NO 18.5 | |
| Oggi h: 08:30 | Sereno | 34 | 14 | 30 | 1005 | 10 | N 18.5 | |
| Oggi h: 07:30 | Sereno | 32 | 14 | 33 | 1004 | 10 | N 18.5 | |
| Oggi h: 06:30 | Sereno | 31 | 14 | 35 | 1004 | 10 | N/NO 18.5 | |
| Oggi h: 05:30 | Sereno | 31 | 14 | 35 | 1003 | 10 | N/NO 18.5 | |
| Oggi h: 04:30 | Sereno | 32 | 12 | 29 | 1003 | 10 | NO 22.2 | |
| Oggi h: 03:30 | Sereno | 33 | 13 | 29 | 1003 | 10 | N/NO 22.2 | |
| Oggi h: 02:30 | Sereno | 33 | 13 | 29 | 1003 | 10 | N/NO 24 | |
| Oggi h: 01:30 | Sereno | 34 | 10 | 23 | 1003 | 10 | N/NO 25.9 | |
| Oggi h: 00:30 | Sereno | 36 | 10 | 20 | 1003 | 10 | N/NO 29.6 | |



